Time;durP1;ratioP1;P1;durP2;ratioP2;P2;SDS_P1;SDS_P2;PMS_P1;PMS_P2;Temp;Humidity;BMP_temperature;BMP_pressure;BME280_temperature;BME280_humidity;BME280_pressure;Samples;Min_cycle;Max_cycle;Signal;HPM_P1;HPM_P2
2022/05/04 00:01:46;;;;;;;8.63;2.67;;;7.90;95.00;;;;;;5094976;28;20480;-75
2022/05/04 00:04:11;;;;;;;4.97;2.35;;;7.90;95.00;;;;;;5094702;28;20044;-76
2022/05/04 00:06:37;;;;;;;8.35;2.20;;;7.90;95.20;;;;;;5078542;28;20054;-76
2022/05/04 00:09:03;;;;;;;6.47;2.90;;;7.90;95.30;;;;;;5111684;28;20157;-75
2022/05/04 00:11:29;;;;;;;8.95;2.83;;;7.90;95.50;;;;;;5113131;28;20047;-75
2022/05/04 00:13:54;;;;;;;12.18;2.60;;;7.80;95.60;;;;;;5061571;28;20062;-75
2022/05/04 00:16:20;;;;;;;7.13;2.40;;;7.90;95.60;;;;;;5112513;28;20384;-75
2022/05/04 00:18:46;;;;;;;11.23;2.63;;;7.90;95.70;;;;;;5094717;28;20039;-75
2022/05/04 00:21:11;;;;;;;7.50;2.08;;;7.80;95.60;;;;;;5112304;28;20047;-76
2022/05/04 00:23:37;;;;;;;9.68;2.45;;;7.80;95.60;;;;;;5077796;28;20044;-76
2022/05/04 00:26:02;;;;;;;9.80;2.72;;;7.80;95.90;;;;;;5077494;28;20062;-76
2022/05/04 00:28:28;;;;;;;7.32;2.55;;;7.80;95.90;;;;;;5112997;28;20087;-75
2022/05/04 00:30:54;;;;;;;12.20;3.22;;;7.90;95.90;;;;;;5061289;28;20048;-75
2022/05/04 00:33:19;;;;;;;13.10;3.22;;;7.90;96.10;;;;;;5060983;28;20047;-75
2022/05/04 00:35:45;;;;;;;10.68;3.03;;;7.80;96.20;;;;;;5112719;28;20379;-76
2022/05/04 00:38:11;;;;;;;7.10;2.42;;;7.80;96.20;;;;;;5077585;28;20472;-76
2022/05/04 00:40:36;;;;;;;12.18;2.50;;;7.90;96.50;;;;;;5112858;28;20044;-76
2022/05/04 00:43:02;;;;;;;8.88;2.47;;;7.90;96.80;;;;;;5081489;28;20043;-75
2022/05/04 00:45:28;;;;;;;7.03;2.22;;;7.90;96.90;;;;;;5098760;28;20542;-75
2022/05/04 00:47:53;;;;;;;10.27;2.70;;;7.90;97.00;;;;;;5116611;28;20130;-75
2022/05/04 00:50:20;;;;;;;8.40;2.75;;;8.00;97.00;;;;;;5098044;28;20047;-75
2022/05/04 00:52:46;;;;;;;9.77;2.38;;;7.90;97.20;;;;;;5065372;28;20048;-75
2022/05/04 00:55:12;;;;;;;11.13;3.00;;;7.90;97.40;;;;;;5081044;28;20499;-75
2022/05/04 01:00:22;;;;;;;6.90;2.75;;;8.00;97.50;;;;;;5100739;28;20399;-75
2022/05/04 01:02:48;;;;;;;9.75;3.15;;;8.00;97.50;;;;;;5116463;28;20059;-75
2022/05/04 01:05:13;;;;;;;9.10;2.90;;;8.00;97.60;;;;;;5097883;28;20050;-75
2022/05/04 01:07:41;;;;;;;9.40;2.65;;;8.00;97.50;;;;;;5081430;28;20055;-75
2022/05/04 01:10:07;;;;;;;10.27;2.97;;;8.00;97.30;;;;;;5097911;28;20094;-76
2022/05/04 01:12:33;;;;;;;11.10;3.42;;;8.00;97.10;;;;;;5098055;28;20445;-76
2022/05/04 01:14:59;;;;;;;9.85;2.92;;;8.10;97.10;;;;;;5097928;28;20055;-75
2022/05/04 01:17:27;;;;;;;10.52;3.30;;;8.10;97.10;;;;;;5046963;28;20050;-76
2022/05/04 01:19:55;;;;;;;9.57;2.97;;;8.10;97.10;;;;;;5098024;28;20081;-75
2022/05/04 01:22:24;;;;;;;12.88;3.47;;;8.10;97.00;;;;;;5080725;28;20461;-75
2022/05/04 01:24:50;;;;;;;8.73;2.80;;;8.10;96.90;;;;;;5097541;28;20430;-75
2022/05/04 01:27:17;;;;;;;9.18;2.92;;;8.10;97.10;;;;;;5097403;28;20082;-76
2022/05/04 01:29:43;;;;;;;8.45;2.65;;;8.10;97.00;;;;;;5097554;28;20472;-76
2022/05/04 01:32:09;;;;;;;8.93;2.85;;;8.10;97.00;;;;;;5097371;28;20047;-75
2022/05/04 01:34:34;;;;;;;8.95;2.97;;;8.10;97.20;;;;;;5115804;28;20476;-75
2022/05/04 01:37:00;;;;;;;10.73;3.15;;;8.10;97.10;;;;;;5097523;28;20040;-76
2022/05/04 01:39:26;;;;;;;10.55;3.10;;;8.10;97.00;;;;;;5097115;28;20048;-75
2022/05/04 01:42:05;;;;;;;7.03;2.53;;;8.10;97.00;;;;;;5080844;28;20548;-76
2022/05/04 01:44:33;;;;;;;9.18;2.90;;;8.10;97.20;;;;;;5082242;28;20047;-75
2022/05/04 01:47:00;;;;;;;8.75;2.70;;;8.10;97.40;;;;;;5115541;28;20164;-75
2022/05/04 01:49:25;;;;;;;6.13;2.30;;;8.10;97.40;;;;;;5097084;28;20100;-75
2022/05/04 01:51:51;;;;;;;11.18;2.92;;;8.10;97.30;;;;;;5096988;28;20051;-75
2022/05/04 01:54:17;;;;;;;10.45;2.50;;;8.20;97.50;;;;;;5079976;28;20048;-76
2022/05/04 01:56:42;;;;;;;8.23;2.67;;;8.20;97.70;;;;;;5115548;28;20039;-76
2022/05/04 01:59:08;;;;;;;7.63;2.45;;;8.20;97.80;;;;;;5115141;28;20469;-75
2022/05/04 02:01:34;;;;;;;10.98;3.10;;;8.10;98.00;;;;;;5096884;28;20039;-76
2022/05/04 02:03:59;;;;;;;9.95;2.83;;;8.10;98.30;;;;;;5097239;28;20058;-76
2022/05/04 02:06:25;;;;;;;9.52;2.65;;;8.10;98.00;;;;;;5096818;28;20063;-76
2022/05/04 02:08:51;;;;;;;10.80;3.20;;;8.10;97.90;;;;;;5115060;28;20043;-75
2022/05/04 02:11:17;;;;;;;8.80;2.63;;;8.20;97.90;;;;;;5063251;28;20381;-75
2022/05/04 02:13:42;;;;;;;7.78;2.33;;;8.20;97.60;;;;;;5115058;28;20480;-76
2022/05/04 02:16:08;;;;;;;10.68;3.10;;;8.10;97.90;;;;;;5096786;28;20048;-76
2022/05/04 02:18:34;;;;;;;6.18;2.20;;;8.10;98.20;;;;;;5114422;28;20051;-76
2022/05/04 02:20:59;;;;;;;7.22;2.30;;;8.10;98.40;;;;;;5096910;28;20396;-75
2022/05/04 02:23:25;;;;;;;10.85;2.80;;;8.10;98.50;;;;;;5095981;28;20054;-76
2022/05/04 02:25:51;;;;;;;9.55;3.03;;;8.10;98.50;;;;;;5096740;28;20047;-75
2022/05/04 02:28:16;;;;;;;9.20;2.60;;;8.10;98.60;;;;;;5096310;28;20051;-76
2022/05/04 02:30:43;;;;;;;8.27;2.50;;;8.10;98.70;;;;;;5096558;28;20153;-76
2022/05/04 02:33:09;;;;;;;11.35;2.72;;;8.10;98.80;;;;;;5096519;28;20120;-75
2022/05/04 02:38:19;;;;;;;6.90;2.30;;;8.10;98.70;;;;;;5098701;28;20411;-75
2022/05/04 02:40:44;;;;;;;8.65;2.50;;;8.10;98.70;;;;;;5096474;28;20044;-75
2022/05/04 02:43:10;;;;;;;8.48;2.28;;;8.10;98.80;;;;;;5114392;28;20041;-75
2022/05/04 02:45:35;;;;;;;8.20;2.40;;;8.10;98.50;;;;;;5095928;28;20410;-76
2022/05/04 02:48:01;;;;;;;8.27;2.92;;;8.10;98.20;;;;;;5079486;28;20047;-76
2022/05/04 02:50:27;;;;;;;11.77;2.95;;;8.10;97.80;;;;;;5078958;28;20097;-75
2022/05/04 02:52:53;;;;;;;7.45;2.50;;;8.10;97.70;;;;;;5096036;28;20463;-75
2022/05/04 02:55:18;;;;;;;9.00;2.72;;;8.10;97.80;;;;;;5095845;28;20047;-76
2022/05/04 02:57:44;;;;;;;9.55;2.92;;;8.10;97.70;;;;;;5095886;28;20066;-75
2022/05/04 03:00:10;;;;;;;9.77;2.58;;;8.10;97.70;;;;;;5062665;28;20051;-75
2022/05/04 03:02:36;;;;;;;10.57;2.45;;;8.10;97.60;;;;;;5095683;28;20062;-75
2022/05/04 03:05:06;;;;;;;8.13;2.65;;;8.10;97.70;;;;;;5078613;28;20513;-76
2022/05/04 03:07:31;;;;;;;10.50;2.60;;;8.10;97.50;;;;;;5078786;28;20130;-76
2022/05/04 03:09:57;;;;;;;7.90;2.65;;;8.20;97.50;;;;;;5062536;28;20147;-75
2022/05/04 03:12:23;;;;;;;6.53;2.75;;;8.20;97.70;;;;;;5078734;28;20407;-76
2022/05/04 03:14:49;;;;;;;9.23;2.58;;;8.10;97.90;;;;;;5095766;28;20044;-75
2022/05/04 03:17:15;;;;;;;6.63;2.45;;;8.20;97.90;;;;;;5078618;28;20044;-75
2022/05/04 03:19:40;;;;;;;6.90;2.38;;;8.10;97.90;;;;;;5095256;28;20039;-75
2022/05/04 03:22:06;;;;;;;7.60;2.58;;;8.10;97.90;;;;;;5078926;28;20055;-76
2022/05/04 03:24:32;;;;;;;9.25;2.38;;;8.10;97.90;;;;;;5095023;28;20054;-76
2022/05/04 03:26:58;;;;;;;10.18;2.30;;;8.10;97.90;;;;;;5078892;28;20055;-75
2022/05/04 03:29:23;;;;;;;10.80;2.55;;;8.10;97.90;;;;;;5078415;28;20036;-76
2022/05/04 03:31:49;;;;;;;7.82;2.65;;;8.10;97.70;;;;;;5095373;28;20071;-75
2022/05/04 03:34:15;;;;;;;8.25;3.08;;;8.10;97.60;;;;;;5113670;28;20043;-75
2022/05/04 03:36:40;;;;;;;6.68;2.30;;;8.10;97.70;;;;;;5094588;28;20053;-76
2022/05/04 03:39:06;;;;;;;11.52;2.85;;;8.10;97.80;;;;;;5113889;28;20123;-75
2022/05/04 03:41:32;;;;;;;8.90;2.53;;;8.10;97.90;;;;;;5094940;28;20083;-76
2022/05/04 03:43:58;;;;;;;7.55;2.80;;;8.10;97.90;;;;;;5078512;28;20139;-75
2022/05/04 03:46:25;;;;;;;8.70;2.65;;;8.00;97.90;;;;;;5061376;28;20050;-79
2022/05/04 03:48:58;;;;;;;7.63;2.40;;;8.10;98.00;;;;;;5095206;28;20062;-75
2022/05/04 03:51:24;;;;;;;8.43;2.70;;;8.10;98.10;;;;;;5113279;28;20054;-75
2022/05/04 03:53:51;;;;;;;7.75;2.45;;;8.10;98.20;;;;;;5094920;28;20090;-75
2022/05/04 03:56:16;;;;;;;5.70;2.40;;;8.10;98.10;;;;;;5078532;28;20449;-75
2022/05/04 03:58:43;;;;;;;14.10;3.05;;;8.00;98.00;;;;;;5061390;28;20052;-75
2022/05/04 04:01:08;;;;;;;12.15;3.58;;;8.00;97.90;;;;;;5078411;28;20104;-76
2022/05/04 04:03:34;;;;;;;9.18;2.72;;;8.10;98.00;;;;;;5061330;28;20051;-75
2022/05/04 04:06:00;;;;;;;9.48;2.45;;;8.00;97.80;;;;;;5095073;28;20046;-76
2022/05/04 04:08:26;;;;;;;10.55;2.70;;;8.10;97.70;;;;;;5113245;28;20122;-75
2022/05/04 04:10:52;;;;;;;10.90;2.47;;;8.10;97.60;;;;;;5113008;28;20048;-75
2022/05/04 04:13:18;;;;;;;10.60;2.90;;;8.10;98.00;;;;;;5113041;28;20116;-75
2022/05/04 04:15:43;;;;;;;9.45;2.55;;;8.10;98.20;;;;;;5114316;28;20043;-75
2022/05/04 04:18:09;;;;;;;10.63;2.75;;;8.10;98.20;;;;;;5065877;28;20051;-75
2022/05/04 04:23:20;;;;;;;8.60;2.60;;;8.10;97.90;;;;;;5098891;28;20058;-75
2022/05/04 04:25:45;;;;;;;6.90;2.55;;;8.10;98.00;;;;;;5098674;28;20048;-75
2022/05/04 04:28:11;;;;;;;11.05;2.85;;;8.10;98.00;;;;;;5098808;28;20130;-75
2022/05/04 04:30:40;;;;;;;9.98;2.80;;;8.10;98.20;;;;;;5081826;28;20040;-76
2022/05/04 04:33:06;;;;;;;7.28;2.50;;;8.10;98.20;;;;;;5081972;28;20400;-76
2022/05/04 04:35:33;;;;;;;9.23;2.78;;;8.10;98.20;;;;;;5065181;28;20493;-76
2022/05/04 04:37:59;;;;;;;8.90;2.40;;;8.20;98.20;;;;;;5081912;28;20044;-75
2022/05/04 04:40:25;;;;;;;6.88;2.20;;;8.10;98.20;;;;;;5098792;28;20044;-75
2022/05/04 04:42:51;;;;;;;6.82;2.42;;;8.10;98.10;;;;;;5081563;28;20481;-75
2022/05/04 04:45:17;;;;;;;7.10;2.30;;;8.10;98.10;;;;;;5116775;28;20377;-75
2022/05/04 04:47:45;;;;;;;10.85;2.60;;;8.20;97.60;;;;;;5081503;28;20059;-75
2022/05/04 04:50:10;;;;;;;8.82;2.30;;;8.20;97.00;;;;;;5115520;28;20057;-76
2022/05/04 04:52:36;;;;;;;7.03;2.60;;;8.20;96.90;;;;;;5098295;28;20122;-76
2022/05/04 04:55:01;;;;;;;11.02;2.80;;;8.20;96.70;;;;;;5098618;28;20090;-77
2022/05/04 04:57:27;;;;;;;6.60;2.40;;;8.30;96.60;;;;;;5098374;28;20039;-75
2022/05/04 04:59:53;;;;;;;10.52;2.70;;;8.20;96.40;;;;;;5097780;28;20051;-75
2022/05/04 05:02:18;;;;;;;9.35;2.40;;;8.30;96.30;;;;;;5098502;28;20058;-75
2022/05/04 05:04:44;;;;;;;7.22;2.47;;;8.30;96.40;;;;;;5098134;28;20093;-76
2022/05/04 05:07:09;;;;;;;7.97;2.30;;;8.30;96.50;;;;;;5116302;28;20437;-75
2022/05/04 05:09:35;;;;;;;9.52;2.28;;;8.40;96.00;;;;;;5097945;28;20047;-78
2022/05/04 05:12:01;;;;;;;9.65;2.65;;;8.30;95.40;;;;;;5098183;28;20099;-77
2022/05/04 05:17:10;;;;;;;8.50;2.13;;;8.40;94.90;;;;;;5097693;28;20051;-75
2022/05/04 05:19:36;;;;;;;8.73;2.45;;;8.50;95.30;;;;;;5116154;28;20047;-75
2022/05/04 05:22:02;;;;;;;8.55;2.67;;;8.40;95.20;;;;;;5098090;28;20044;-75
2022/05/04 05:24:27;;;;;;;10.13;2.67;;;8.40;95.10;;;;;;5097815;28;20415;-75
2022/05/04 05:26:53;;;;;;;7.43;2.20;;;8.40;95.40;;;;;;5080017;28;20049;-75
2022/05/04 05:29:19;;;;;;;9.85;2.30;;;8.50;95.60;;;;;;5081118;28;20476;-75
2022/05/04 05:31:45;;;;;;;8.00;2.30;;;8.50;95.20;;;;;;5080521;28;20092;-75
2022/05/04 05:34:11;;;;;;;10.80;2.22;;;8.50;94.20;;;;;;5097900;28;20055;-75
2022/05/04 05:36:36;;;;;;;8.10;2.28;;;8.50;93.40;;;;;;5080747;28;20092;-75
2022/05/04 05:39:03;;;;;;;9.68;2.28;;;8.60;93.10;;;;;;5080462;28;20048;-76
2022/05/04 05:41:28;;;;;;;13.15;2.08;;;8.60;92.50;;;;;;5097526;28;20048;-75
2022/05/04 05:43:54;;;;;;;9.65;2.60;;;8.60;92.50;;;;;;5080340;28;20400;-75
2022/05/04 05:46:19;;;;;;;9.70;2.00;;;8.70;92.60;;;;;;5097368;28;20097;-75
2022/05/04 05:48:48;;;;;;;10.45;2.08;;;8.70;92.30;;;;;;5097139;28;20126;-75
2022/05/04 05:51:13;;;;;;;8.13;2.28;;;8.70;91.70;;;;;;5097453;28;20050;-75
2022/05/04 05:53:39;;;;;;;7.00;1.77;;;8.80;91.70;;;;;;5097232;28;20048;-76
2022/05/04 05:56:05;;;;;;;7.10;1.90;;;8.80;91.70;;;;;;5079926;28;20051;-75
2022/05/04 05:58:30;;;;;;;8.18;2.00;;;8.80;91.60;;;;;;5097348;28;20048;-75
2022/05/04 06:00:56;;;;;;;8.63;2.28;;;8.90;91.60;;;;;;5114902;28;20123;-75
2022/05/04 06:03:22;;;;;;;9.13;2.10;;;8.90;91.20;;;;;;5097283;28;20064;-75
2022/05/04 06:05:47;;;;;;;7.47;1.80;;;8.90;90.60;;;;;;5114667;28;20770;-75
2022/05/04 06:08:13;;;;;;;8.65;2.35;;;9.00;90.30;;;;;;5080128;28;20130;-75
2022/05/04 06:10:39;;;;;;;10.13;2.15;;;9.00;88.80;;;;;;5080208;28;20039;-75
2022/05/04 06:13:05;;;;;;;4.72;1.50;;;9.00;87.70;;;;;;5063159;28;20051;-76
2022/05/04 06:15:31;;;;;;;10.52;1.98;;;9.00;87.00;;;;;;5097183;28;20066;-75
2022/05/04 06:17:57;;;;;;;9.52;2.00;;;9.00;87.20;;;;;;5079613;28;20423;-75
2022/05/04 06:20:23;;;;;;;7.47;2.00;;;9.10;86.90;;;;;;5096711;28;20040;-75
2022/05/04 06:22:51;;;;;;;9.02;2.00;;;9.10;86.30;;;;;;5096257;28;20105;-75
2022/05/04 06:25:17;;;;;;;7.30;2.35;;;9.10;86.50;;;;;;5096727;28;20110;-75
2022/05/04 06:27:48;;;;;;;8.68;2.00;;;9.20;86.20;;;;;;5096783;28;20403;-75
2022/05/04 06:35:42;;;;;;;8.80;2.25;;;9.30;84.20;;;;;;5114498;28;20050;-76
2022/05/04 06:38:09;;;;;;;11.20;2.45;;;9.30;84.10;;;;;;5078707;28;20047;-76
2022/05/04 06:40:34;;;;;;;7.65;1.95;;;9.50;84.30;;;;;;5096100;28;20051;-75
2022/05/04 06:43:00;;;;;;;8.10;2.30;;;9.50;83.00;;;;;;5062636;28;20054;-75
2022/05/04 06:45:26;;;;;;;8.60;2.58;;;9.60;82.20;;;;;;5096519;28;20495;-75
2022/05/04 06:47:51;;;;;;;8.50;1.92;;;9.60;82.40;;;;;;5113846;28;20044;-76
2022/05/04 06:50:17;;;;;;;8.13;2.15;;;9.70;81.30;;;;;;5096298;28;20043;-75
2022/05/04 06:52:43;;;;;;;8.98;2.17;;;9.70;81.60;;;;;;5079443;28;20055;-76
2022/05/04 06:55:09;;;;;;;8.98;2.38;;;9.70;81.70;;;;;;5095687;28;20051;-76
2022/05/04 06:57:36;;;;;;;5.70;1.80;;;9.80;80.90;;;;;;5114044;28;20385;-75
2022/05/04 07:00:05;;;;;;;9.57;2.10;;;9.70;79.90;;;;;;5113716;28;20066;-76
2022/05/04 07:02:33;;;;;;;5.20;1.90;;;9.80;80.00;;;;;;5079336;28;20047;-76
2022/05/04 07:04:59;;;;;;;7.45;2.20;;;9.80;78.60;;;;;;5095388;28;20139;-75
2022/05/04 07:07:25;;;;;;;8.13;2.20;;;9.80;78.20;;;;;;5095957;28;20051;-75
2022/05/04 07:09:50;;;;;;;7.10;1.73;;;9.70;77.20;;;;;;5095457;28;20043;-76
2022/05/04 07:12:16;;;;;;;9.20;1.88;;;9.70;76.80;;;;;;5095970;28;20573;-75
2022/05/04 07:14:41;;;;;;;6.88;1.92;;;9.80;78.40;;;;;;5113816;28;20453;-75
2022/05/04 07:17:07;;;;;;;6.28;1.95;;;9.80;79.00;;;;;;5095214;28;20108;-75
2022/05/04 07:19:33;;;;;;;10.98;2.45;;;9.90;78.90;;;;;;5095363;28;20488;-75
2022/05/04 07:21:59;;;;;;;9.98;2.28;;;10.00;78.40;;;;;;5078182;28;20051;-76
2022/05/04 07:24:24;;;;;;;7.78;2.13;;;10.10;78.00;;;;;;5113618;28;20108;-75
2022/05/04 07:26:50;;;;;;;5.97;2.10;;;10.20;77.30;;;;;;5113642;28;20389;-75
2022/05/04 07:29:15;;;;;;;8.88;1.98;;;10.20;76.60;;;;;;5113113;28;20065;-75
2022/05/04 07:31:44;;;;;;;7.85;1.50;;;10.30;76.90;;;;;;5113597;28;20479;-75
2022/05/04 07:34:10;;;;;;;9.90;1.70;;;10.30;76.40;;;;;;5095024;28;20119;-75
2022/05/04 07:36:36;;;;;;;8.63;2.28;;;10.40;75.50;;;;;;5095233;28;20396;-75
2022/05/04 07:39:02;;;;;;;8.80;2.03;;;10.40;74.60;;;;;;5095127;28;20113;-76
2022/05/04 07:44:12;;;;;;;5.68;1.60;;;10.40;73.70;;;;;;5113045;28;20044;-75
2022/05/04 07:46:37;;;;;;;6.80;1.90;;;10.50;74.10;;;;;;5078768;28;20369;-76
2022/05/04 07:49:04;;;;;;;11.90;2.22;;;10.50;73.00;;;;;;5112779;28;20040;-75
2022/05/04 07:51:30;;;;;;;10.02;2.35;;;10.50;73.00;;;;;;5095199;28;20403;-75
2022/05/04 07:53:55;;;;;;;6.30;2.00;;;10.60;73.10;;;;;;5095114;28;20043;-79
2022/05/04 07:56:21;;;;;;;5.15;1.83;;;10.60;73.20;;;;;;5094819;28;20036;-75
2022/05/04 07:58:46;;;;;;;10.43;2.10;;;10.60;73.00;;;;;;5113115;28;20039;-75
2022/05/04 08:06:41;;;;;;;5.15;1.77;;;10.90;73.50;;;;;;5095267;28;20047;-76
2022/05/04 08:09:06;;;;;;;8.52;2.17;;;11.00;73.30;;;;;;5112705;28;20365;-75
2022/05/04 08:11:32;;;;;;;9.02;2.40;;;11.00;72.60;;;;;;5095136;28;20040;-76
2022/05/04 08:13:58;;;;;;;8.27;2.10;;;11.00;71.70;;;;;;5112627;28;20460;-79
2022/05/04 08:16:23;;;;;;;6.65;1.95;;;11.00;71.80;;;;;;5095010;28;20122;-75
2022/05/04 08:18:49;;;;;;;5.70;1.67;;;11.00;71.10;;;;;;5078302;28;20387;-75
2022/05/04 08:21:15;;;;;;;7.47;1.70;;;11.00;70.50;;;;;;5112195;28;20157;-75
2022/05/04 08:23:40;;;;;;;6.07;1.80;;;11.00;70.70;;;;;;5094521;28;20051;-75
2022/05/04 08:26:06;;;;;;;7.15;1.92;;;11.00;70.60;;;;;;5094576;28;20060;-76
2022/05/04 08:28:32;;;;;;;8.85;2.05;;;11.10;70.50;;;;;;5078239;28;20396;-75
2022/05/04 08:30:57;;;;;;;12.07;1.92;;;11.10;70.90;;;;;;5078112;28;20090;-76
2022/05/04 08:33:23;;;;;;;6.65;1.80;;;11.30;70.20;;;;;;5094398;28;20044;-76
2022/05/04 08:35:49;;;;;;;9.27;2.03;;;11.30;70.20;;;;;;5112872;28;20059;-75
2022/05/04 08:38:14;;;;;;;8.65;2.05;;;11.40;70.30;;;;;;5061055;28;20043;-75
2022/05/04 08:40:40;;;;;;;13.20;2.33;;;11.40;69.40;;;;;;5094815;28;20048;-75
2022/05/04 08:43:07;;;;;;;10.43;2.33;;;11.40;68.90;;;;;;5112410;28;20063;-75
2022/05/04 08:45:39;;;;;;;11.32;2.45;;;11.50;68.60;;;;;;5078176;28;20381;-76
2022/05/04 08:48:07;;;;;;;6.75;2.00;;;11.50;69.40;;;;;;5094596;28;20043;-76
2022/05/04 08:50:33;;;;;;;6.47;2.25;;;11.60;69.10;;;;;;5112777;28;20043;-76
2022/05/04 08:53:00;;;;;;;9.95;2.40;;;11.60;68.80;;;;;;5111102;28;20126;-75
2022/05/04 08:55:25;;;;;;;6.53;1.75;;;11.80;69.30;;;;;;5081251;28;20054;-75
2022/05/04 08:57:51;;;;;;;7.00;2.00;;;11.80;68.50;;;;;;5114712;28;20043;-75
2022/05/04 09:00:17;;;;;;;7.78;2.25;;;11.80;68.40;;;;;;5114472;28;20095;-75
2022/05/04 09:02:43;;;;;;;7.60;2.00;;;11.90;68.20;;;;;;5100057;27;20051;-75
2022/05/04 09:05:20;;;;;;;6.45;2.15;;;11.90;67.90;;;;;;5100976;27;20423;-76
2022/05/04 09:07:47;;;;;;;9.80;2.50;;;11.80;67.30;;;;;;5102707;27;20039;-75
2022/05/04 09:10:34;;;;;;;4.00;1.95;;;11.80;68.10;;;;;;5136357;27;20087;-75
2022/05/04 09:13:00;;;;;;;7.22;2.22;;;11.70;67.10;;;;;;5102399;27;20047;-76
2022/05/04 09:15:27;;;;;;;9.80;2.28;;;11.60;69.00;;;;;;5084411;27;20513;-75
2022/05/04 09:17:57;;;;;;;9.07;2.33;;;11.60;69.20;;;;;;5118050;27;20043;-75
2022/05/04 09:20:47;;;;;;;6.40;2.05;;;11.50;69.50;;;;;;5067753;27;20043;-75
2022/05/04 09:23:18;;;;;;;7.40;2.13;;;11.40;69.60;;;;;;5102677;27;20056;-75
2022/05/04 09:25:43;;;;;;;8.15;2.28;;;11.30;69.20;;;;;;5118553;27;20476;-75
2022/05/04 09:28:12;;;;;;;6.38;1.95;;;11.20;70.90;;;;;;5136077;27;20157;-76
2022/05/04 09:30:43;;;;;;;6.20;2.25;;;11.30;69.60;;;;;;5084417;27;20057;-75
2022/05/04 09:33:11;;;;;;;12.63;2.22;;;11.20;68.80;;;;;;5117715;27;20050;-76
2022/05/04 09:35:37;;;;;;;8.57;2.17;;;11.30;68.60;;;;;;5101162;27;20055;-75
2022/05/04 09:46:38;;;;;;;8.35;2.10;;;11.20;69.10;;;;;;5135722;27;20498;-75
2022/05/04 09:49:28;;;;;;;5.90;2.17;;;11.20;69.00;;;;;;5118560;27;20043;-76
2022/05/04 09:51:54;;;;;;;7.22;2.15;;;11.30;68.50;;;;;;5117975;27;20051;-75
2022/05/04 09:54:28;;;;;;;8.40;2.42;;;11.40;69.60;;;;;;5100522;27;20107;-75
2022/05/04 09:56:55;;;;;;;9.77;2.30;;;11.60;67.80;;;;;;5117560;27;20084;-75
2022/05/04 09:59:29;;;;;;;13.32;2.30;;;11.80;67.20;;;;;;5083617;27;20058;-76
2022/05/04 10:01:54;;;;;;;6.65;2.05;;;12.00;66.40;;;;;;5135861;27;20047;-75
2022/05/04 10:04:20;;;;;;;8.60;2.17;;;12.20;67.50;;;;;;5116865;27;20173;-76
2022/05/04 10:06:50;;;;;;;8.98;2.20;;;12.50;66.80;;;;;;5117376;27;20039;-75
2022/05/04 10:09:16;;;;;;;9.73;2.28;;;12.70;66.30;;;;;;5100230;27;20051;-75
2022/05/04 10:11:41;;;;;;;11.82;2.30;;;12.80;65.30;;;;;;5100202;27;20514;-76
2022/05/04 10:14:12;;;;;;;7.35;2.15;;;12.80;65.10;;;;;;5116885;27;20084;-75
2022/05/04 10:16:47;;;;;;;10.10;2.30;;;12.70;64.10;;;;;;5084056;27;20398;-75
2022/05/04 10:19:25;;;;;;;6.00;2.17;;;12.60;64.50;;;;;;5116998;27;20051;-75
2022/05/04 10:21:52;;;;;;;6.07;2.10;;;12.40;64.60;;;;;;5099877;27;20051;-75
2022/05/04 10:24:18;;;;;;;8.45;2.88;;;12.10;65.50;;;;;;5082369;27;20051;-76
2022/05/04 10:26:45;;;;;;;8.60;2.53;;;12.00;66.80;;;;;;5100120;27;20126;-75
2022/05/04 10:32:31;;;;;;;207.93;11.60;;;12.00;65.70;;;;;;5111856;27;20130;-75
2022/05/04 10:35:20;;;;;;;8.93;2.42;;;11.90;66.90;;;;;;5117108;27;20043;-75
2022/05/04 10:37:53;;;;;;;5.85;1.92;;;11.90;66.40;;;;;;5090386;27;20062;-75
2022/05/04 10:40:26;;;;;;;10.85;2.22;;;11.80;66.80;;;;;;5134614;27;20440;-76
2022/05/04 10:43:02;;;;;;;7.68;2.42;;;11.90;66.90;;;;;;5099638;27;20099;-75
2022/05/04 10:45:30;;;;;;;5.82;1.90;;;12.00;65.50;;;;;;5134522;27;20046;-75
2022/05/04 10:48:19;;;;;;;5.70;2.13;;;12.00;66.10;;;;;;5134945;27;20047;-76
2022/05/04 10:50:55;;;;;;;6.15;2.20;;;12.00;65.10;;;;;;5105394;27;20499;-75
2022/05/04 10:53:24;;;;;;;6.35;2.00;;;12.00;65.20;;;;;;5134428;27;20130;-75
2022/05/04 10:56:01;;;;;;;7.22;2.35;;;12.10;65.80;;;;;;5134720;27;20391;-76
2022/05/04 10:58:47;;;;;;;7.80;2.08;;;12.20;65.50;;;;;;5116140;27;20391;-75
2022/05/04 11:01:23;;;;;;;6.75;1.92;;;12.40;66.10;;;;;;5099558;27;20130;-75
2022/05/04 11:04:08;;;;;;;7.18;2.42;;;12.50;65.50;;;;;;5134644;27;20047;-75
2022/05/04 11:06:50;;;;;;;6.88;2.00;;;12.70;65.40;;;;;;5118621;27;20039;-75
2022/05/04 11:09:17;;;;;;;5.43;2.00;;;12.80;64.60;;;;;;5100652;27;20047;-75
2022/05/04 11:11:45;;;;;;;8.07;2.30;;;12.70;64.30;;;;;;5098758;27;20047;-76
2022/05/04 11:14:12;;;;;;;10.15;2.33;;;12.70;65.40;;;;;;5116141;27;20437;-76
2022/05/04 11:16:38;;;;;;;7.90;1.98;;;12.70;65.70;;;;;;5065221;27;20055;-75
2022/05/04 11:19:04;;;;;;;6.95;2.13;;;12.80;65.20;;;;;;5134198;27;20043;-75
2022/05/04 11:21:31;;;;;;;9.10;2.35;;;12.70;65.20;;;;;;5115511;27;20054;-75
2022/05/04 11:23:58;;;;;;;9.27;2.05;;;12.70;65.80;;;;;;5115719;27;20059;-76
2022/05/04 11:26:34;;;;;;;6.30;2.40;;;12.70;65.10;;;;;;5132819;27;20495;-76
2022/05/04 11:29:00;;;;;;;7.55;2.20;;;12.60;65.60;;;;;;5134229;27;20107;-76
2022/05/04 11:31:25;;;;;;;6.05;2.28;;;12.60;65.30;;;;;;5115537;27;20039;-76
2022/05/04 11:33:51;;;;;;;11.32;2.28;;;12.70;65.90;;;;;;5115824;27;20122;-75
2022/05/04 11:36:21;;;;;;;6.55;2.33;;;12.80;66.10;;;;;;5098689;27;20047;-75
2022/05/04 11:38:47;;;;;;;6.17;2.13;;;13.00;65.50;;;;;;5098516;27;20391;-75
2022/05/04 11:41:13;;;;;;;7.45;2.00;;;13.10;65.00;;;;;;5133856;27;20047;-76
2022/05/04 11:43:39;;;;;;;7.63;2.00;;;13.30;62.80;;;;;;5115377;27;20043;-75
2022/05/04 11:46:12;;;;;;;7.68;2.30;;;13.30;62.60;;;;;;5115644;27;20382;-75
2022/05/04 11:48:42;;;;;;;6.10;2.20;;;13.40;62.50;;;;;;5115561;28;20065;-76
2022/05/04 11:51:08;;;;;;;5.45;2.38;;;13.40;61.90;;;;;;5115872;27;20108;-76
2022/05/04 11:53:36;;;;;;;6.93;2.10;;;13.40;62.90;;;;;;5115207;27;20452;-76
2022/05/04 11:56:06;;;;;;;9.10;2.55;;;13.50;62.90;;;;;;5115662;27;20049;-76
2022/05/04 11:58:33;;;;;;;7.22;2.47;;;13.60;62.30;;;;;;5099055;27;20047;-76
2022/05/04 12:00:59;;;;;;;5.80;2.00;;;13.70;61.80;;;;;;5115696;27;20051;-76
2022/05/04 12:03:25;;;;;;;6.57;2.58;;;13.70;61.50;;;;;;5081953;28;20086;-76
2022/05/04 12:05:50;;;;;;;6.30;2.33;;;13.60;60.50;;;;;;5098152;28;20079;-76
2022/05/04 12:08:18;;;;;;;7.85;2.22;;;13.50;61.90;;;;;;5115408;28;20047;-75
2022/05/04 12:10:44;;;;;;;10.90;2.22;;;13.60;63.10;;;;;;5081725;28;20086;-76
2022/05/04 12:13:09;;;;;;;7.00;2.00;;;13.60;62.60;;;;;;5081500;28;20047;-76
2022/05/04 12:15:37;;;;;;;6.72;2.42;;;13.60;61.20;;;;;;5098153;28;20051;-76
2022/05/04 12:18:05;;;;;;;6.35;2.33;;;13.60;61.20;;;;;;5115599;28;20087;-76
2022/05/04 12:20:32;;;;;;;7.63;2.40;;;13.70;60.10;;;;;;5098046;28;20118;-76
2022/05/04 12:22:58;;;;;;;6.05;2.30;;;13.60;60.00;;;;;;5115149;28;20051;-76
2022/05/04 12:25:24;;;;;;;8.80;2.35;;;13.70;60.50;;;;;;5098376;28;20187;-76
2022/05/04 12:27:54;;;;;;;6.43;2.15;;;13.70;60.10;;;;;;5081259;28;20039;-76
2022/05/04 12:33:08;;;;;;;5.95;2.50;;;13.80;61.00;;;;;;5101133;28;20054;-76
2022/05/04 12:35:34;;;;;;;6.95;2.40;;;13.90;60.70;;;;;;5133187;28;20047;-76
2022/05/04 12:38:03;;;;;;;5.95;2.90;;;13.90;60.40;;;;;;5100666;27;20050;-76
2022/05/04 12:40:29;;;;;;;8.52;3.13;;;13.90;60.30;;;;;;5086352;27;20123;-76
2022/05/04 12:42:55;;;;;;;7.05;2.50;;;13.80;60.70;;;;;;5101778;27;20433;-76
2022/05/04 12:45:23;;;;;;;8.95;2.60;;;13.80;61.50;;;;;;5101980;27;20086;-76
2022/05/04 12:47:49;;;;;;;7.90;3.00;;;13.80;62.50;;;;;;5118561;27;20051;-76
2022/05/04 12:50:15;;;;;;;8.25;2.65;;;13.80;61.30;;;;;;5119001;27;20039;-76
2022/05/04 12:52:40;;;;;;;8.85;2.78;;;13.70;61.20;;;;;;5118748;27;20035;-76
2022/05/04 12:55:06;;;;;;;5.95;2.40;;;13.70;61.40;;;;;;5085036;27;20039;-76
2022/05/04 12:57:32;;;;;;;7.07;2.80;;;13.80;60.70;;;;;;5118809;27;20084;-76
2022/05/04 12:59:57;;;;;;;8.23;2.70;;;13.90;60.30;;;;;;5118247;27;20475;-76
2022/05/04 13:02:23;;;;;;;6.68;2.67;;;14.00;60.60;;;;;;5118549;27;20039;-75
2022/05/04 13:04:49;;;;;;;8.13;3.10;;;14.00;60.40;;;;;;5084500;27;20056;-76
2022/05/04 13:07:14;;;;;;;9.02;3.15;;;14.00;60.20;;;;;;5118679;27;20047;-76
2022/05/04 13:09:42;;;;;;;5.93;2.85;;;13.90;59.70;;;;;;5136492;27;20047;-75
2022/05/04 13:12:11;;;;;;;10.70;2.90;;;13.80;60.00;;;;;;5118653;27;20051;-76
2022/05/04 13:14:38;;;;;;;8.02;3.20;;;13.80;60.70;;;;;;5136339;27;20500;-76
2022/05/04 13:17:04;;;;;;;7.90;2.72;;;13.90;60.10;;;;;;5118412;27;20047;-76
2022/05/04 13:19:30;;;;;;;8.90;2.88;;;13.90;60.50;;;;;;5136690;27;20140;-76
2022/05/04 13:21:56;;;;;;;6.32;2.50;;;14.00;60.50;;;;;;5118007;27;20057;-76
2022/05/04 13:24:22;;;;;;;6.13;2.80;;;13.90;60.50;;;;;;5136135;27;20055;-76
2022/05/04 13:26:47;;;;;;;6.88;2.80;;;13.80;60.80;;;;;;5118078;27;20051;-76
2022/05/04 13:29:13;;;;;;;8.02;2.85;;;13.70;60.50;;;;;;5118140;27;20039;-76